createdAt,value
2023-09-04T00:02:03.651Z,12.55
2023-09-04T00:04:30.597Z,13.20
2023-09-04T00:06:58.710Z,12.48
2023-09-04T00:09:25.644Z,12.55
2023-09-04T00:11:52.561Z,12.30
2023-09-04T00:14:19.486Z,11.82
2023-09-04T00:16:46.400Z,13.43
2023-09-04T00:19:14.718Z,13.35
2023-09-04T00:21:41.900Z,14.48
2023-09-04T00:24:09.099Z,13.20
2023-09-04T00:26:36.798Z,13.93
2023-09-04T00:29:03.895Z,13.25
2023-09-04T00:31:30.848Z,13.65
2023-09-04T00:33:57.826Z,13.85
2023-09-04T00:36:26.088Z,15.05
2023-09-04T00:38:53.072Z,14.60
2023-09-04T00:41:20.106Z,14.38
2023-09-04T00:43:47.019Z,12.48
2023-09-04T00:46:14.150Z,13.02
2023-09-04T00:48:41.627Z,14.02
2023-09-04T00:51:08.823Z,13.50
2023-09-04T00:53:38.753Z,14.75
2023-09-04T00:56:07.334Z,13.55
2023-09-04T00:58:35.264Z,12.95
2023-09-04T01:01:02.396Z,14.60
2023-09-04T01:03:30.601Z,13.70
2023-09-04T01:05:57.913Z,13.50
2023-09-04T01:08:25.944Z,13.45
2023-09-04T01:11:00.385Z,14.20
2023-09-04T01:13:31.972Z,14.70
2023-09-04T01:16:00.473Z,13.88
2023-09-04T01:18:28.554Z,14.35
2023-09-04T01:21:04.008Z,13.43
2023-09-04T01:23:31.009Z,14.30
2023-09-04T01:26:07.960Z,13.45
2023-09-04T01:28:43.293Z,14.40
2023-09-04T01:31:18.338Z,13.45
2023-09-04T01:33:51.276Z,13.95
2023-09-04T01:36:21.399Z,13.90
2023-09-04T01:38:48.540Z,14.32
2023-09-04T01:41:15.605Z,15.43
2023-09-04T01:43:42.570Z,14.82
2023-09-04T01:46:10.347Z,14.25
2023-09-04T01:48:37.266Z,14.10
2023-09-04T01:51:04.227Z,14.23
2023-09-04T01:53:32.513Z,13.13
2023-09-04T01:55:59.448Z,13.60
2023-09-04T01:58:26.865Z,13.60
2023-09-04T02:00:53.816Z,12.88
2023-09-04T02:03:20.948Z,12.82
2023-09-04T02:05:48.052Z,13.57
2023-09-04T02:08:15.205Z,13.57
2023-09-04T02:10:43.579Z,13.23
2023-09-04T02:13:10.560Z,13.13
2023-09-04T02:15:37.902Z,13.93
2023-09-04T02:18:05.236Z,14.50
2023-09-04T02:20:32.683Z,13.73
2023-09-04T02:22:59.908Z,14.88
2023-09-04T02:25:27.527Z,15.00
2023-09-04T02:27:55.901Z,14.10
2023-09-04T02:30:22.922Z,15.10
2023-09-04T02:32:49.981Z,14.93
2023-09-04T02:35:17.301Z,16.15
2023-09-04T02:37:44.567Z,16.90
2023-09-04T02:40:12.751Z,15.80
2023-09-04T02:42:39.855Z,15.68
2023-09-04T02:45:09.930Z,15.60
2023-09-04T02:47:36.893Z,15.00
2023-09-04T02:50:06.489Z,16.13
2023-09-04T02:52:33.536Z,15.43
2023-09-04T02:55:00.770Z,16.38
2023-09-04T02:57:29.979Z,15.25
2023-09-04T02:59:56.903Z,14.60
2023-09-04T03:02:25.478Z,15.85
2023-09-04T03:04:56.022Z,16.27
2023-09-04T03:07:23.176Z,16.40
2023-09-04T03:09:54.946Z,17.25
2023-09-04T03:12:21.961Z,16.55
2023-09-04T03:14:48.890Z,17.42
2023-09-04T03:17:15.851Z,17.13
2023-09-04T03:19:44.240Z,15.65
2023-09-04T03:22:11.240Z,14.57
2023-09-04T03:24:38.194Z,15.38
2023-09-04T03:27:05.649Z,16.98
2023-09-04T03:29:32.628Z,16.40
2023-09-04T03:32:00.114Z,17.13
2023-09-04T03:34:27.026Z,15.40
2023-09-04T03:36:55.310Z,16.08
2023-09-04T03:39:22.899Z,15.57
2023-09-04T03:41:49.846Z,17.73
2023-09-04T03:44:16.816Z,17.00
2023-09-04T03:46:44.136Z,16.27
2023-09-04T03:49:11.788Z,16.55
2023-09-04T03:51:38.683Z,16.95
2023-09-04T03:54:07.170Z,16.77
2023-09-04T03:56:34.593Z,16.10
2023-09-04T03:59:01.577Z,15.25
2023-09-04T04:01:28.814Z,17.67
2023-09-04T04:03:56.111Z,16.88
2023-09-04T04:06:23.113Z,16.35
2023-09-04T04:08:50.307Z,16.02
2023-09-04T04:11:18.880Z,15.48
2023-09-04T04:13:45.987Z,15.68
2023-09-04T04:16:13.247Z,15.75
2023-09-04T04:18:40.344Z,16.02
2023-09-04T04:21:07.262Z,15.25
2023-09-04T04:23:35.433Z,16.42
2023-09-04T04:26:02.529Z,17.38
2023-09-04T04:28:30.999Z,16.63
2023-09-04T04:31:01.544Z,17.08
2023-09-04T04:33:28.601Z,17.20
2023-09-04T04:35:55.759Z,15.05
2023-09-04T04:38:23.163Z,15.02
2023-09-04T04:40:50.432Z,16.05
2023-09-04T04:43:17.344Z,16.02
2023-09-04T04:45:45.673Z,16.80
2023-09-04T04:48:12.753Z,15.65
2023-09-04T04:50:39.658Z,15.48
2023-09-04T04:53:06.588Z,16.17
2023-09-04T04:55:33.507Z,16.73
2023-09-04T04:58:00.540Z,17.05
2023-09-04T05:00:27.502Z,15.90
2023-09-04T05:02:55.883Z,16.77
2023-09-04T05:05:23.146Z,16.02
2023-09-04T05:07:50.015Z,15.90
2023-09-04T05:10:17.111Z,15.10
2023-09-04T05:12:44.312Z,16.25
2023-09-04T05:15:12.000Z,14.88
2023-09-04T05:17:38.940Z,15.45
2023-09-04T05:20:08.822Z,15.75
2023-09-04T05:22:35.706Z,15.48
2023-09-04T05:25:02.737Z,15.40
2023-09-04T05:27:29.684Z,14.68
2023-09-04T05:29:56.574Z,15.82
2023-09-04T05:32:23.531Z,16.08
2023-09-04T05:34:53.613Z,15.85
2023-09-04T05:37:22.039Z,16.02
2023-09-04T05:39:49.128Z,17.10
2023-09-04T05:42:16.067Z,16.42
2023-09-04T05:44:43.044Z,16.55
2023-09-04T05:47:10.038Z,16.13
2023-09-04T05:49:37.309Z,16.27
2023-09-04T05:52:04.629Z,15.75
2023-09-04T05:54:33.053Z,16.10
2023-09-04T05:57:00.069Z,15.73
2023-09-04T05:59:27.019Z,15.73
2023-09-04T06:01:54.042Z,15.88
2023-09-04T06:04:22.605Z,16.38
2023-09-04T06:06:51.846Z,16.00
2023-09-04T06:09:18.951Z,16.60
2023-09-04T06:11:47.455Z,15.75
2023-09-04T06:14:14.463Z,15.55
2023-09-04T06:16:41.539Z,16.42
2023-09-04T06:19:08.480Z,22.15
2023-09-04T06:21:35.603Z,19.92
2023-09-04T06:24:02.562Z,16.58
2023-09-04T06:26:29.452Z,16.33
2023-09-04T06:28:57.832Z,16.35
2023-09-04T06:31:24.867Z,16.63
2023-09-04T06:33:51.892Z,16.30
2023-09-04T06:36:18.797Z,16.55
2023-09-04T06:38:45.700Z,15.00
2023-09-04T06:41:12.644Z,15.00
2023-09-04T06:43:39.553Z,14.77
2023-09-04T06:46:08.210Z,13.85
2023-09-04T06:48:35.334Z,13.05
2023-09-04T06:51:02.307Z,12.15
2023-09-04T06:53:29.249Z,11.30
2023-09-04T06:55:56.143Z,11.52
2023-09-04T06:58:23.380Z,10.63
2023-09-04T07:00:53.490Z,11.95
2023-09-04T07:03:22.777Z,10.57
2023-09-04T07:05:50.470Z,10.73
2023-09-04T07:08:17.369Z,10.00
2023-09-04T07:10:44.298Z,10.38
2023-09-04T07:13:11.292Z,10.30
2023-09-04T07:15:38.284Z,9.95
2023-09-04T07:18:05.627Z,9.60
2023-09-04T07:20:34.218Z,8.98
2023-09-04T07:23:14.719Z,10.35
2023-09-04T07:25:48.106Z,9.32
2023-09-04T07:28:15.058Z,10.40
2023-09-04T07:30:41.954Z,8.73
2023-09-04T07:33:08.934Z,9.20
2023-09-04T07:35:37.469Z,9.52
2023-09-04T07:38:04.724Z,9.00
2023-09-04T07:40:31.621Z,8.60
2023-09-04T07:42:58.570Z,8.10
2023-09-04T07:45:25.878Z,8.35
2023-09-04T07:47:53.061Z,8.32
2023-09-04T07:50:20.180Z,8.27
2023-09-04T07:52:48.501Z,8.80
2023-09-04T07:55:15.502Z,9.05
2023-09-04T07:57:42.446Z,8.07
2023-09-04T08:00:10.115Z,9.07
2023-09-04T08:02:37.042Z,7.30
2023-09-04T08:05:04.281Z,7.80
2023-09-04T08:07:33.120Z,7.57
2023-09-04T08:10:03.016Z,7.10
2023-09-04T08:12:29.971Z,6.53
2023-09-04T08:14:56.925Z,6.65
2023-09-04T08:17:23.893Z,6.15
2023-09-04T08:19:50.950Z,6.80
2023-09-04T08:22:17.898Z,6.70
2023-09-04T08:24:44.854Z,6.57
2023-09-04T08:27:13.131Z,6.13
2023-09-04T08:29:40.031Z,6.35
2023-09-04T08:32:07.112Z,6.03
2023-09-04T08:34:34.047Z,5.63
2023-09-04T08:37:00.990Z,6.25
2023-09-04T08:39:27.893Z,6.45
2023-09-04T08:41:55.840Z,6.13
2023-09-04T08:44:25.107Z,5.78
2023-09-04T08:46:54.047Z,5.53
2023-09-04T08:49:21.352Z,5.82
2023-09-04T08:51:48.473Z,5.95
2023-09-04T08:54:15.723Z,6.00
2023-09-04T08:56:42.843Z,6.00
2023-09-04T08:59:09.817Z,6.18
2023-09-04T09:01:39.324Z,5.97
2023-09-04T09:04:06.804Z,5.63
2023-09-04T09:06:34.761Z,5.90
2023-09-04T09:09:02.119Z,5.93
2023-09-04T09:11:29.423Z,5.90
2023-09-04T09:13:56.414Z,5.60
2023-09-04T09:16:23.487Z,5.40
2023-09-04T09:18:55.043Z,5.63
2023-09-04T09:21:26.938Z,5.28
2023-09-04T09:24:08.922Z,5.55
2023-09-04T09:26:36.082Z,5.05
2023-09-04T09:29:03.288Z,5.43
2023-09-04T09:31:30.424Z,4.93
2023-09-04T09:34:06.741Z,5.07
2023-09-04T09:36:40.714Z,5.15
2023-09-04T09:39:07.663Z,4.72
2023-09-04T09:41:35.162Z,5.35
2023-09-04T09:44:02.698Z,4.68
2023-09-04T09:46:30.754Z,4.43
2023-09-04T09:48:59.210Z,4.80
2023-09-04T09:51:27.626Z,4.82
2023-09-04T09:53:54.733Z,4.40
2023-09-04T09:56:21.623Z,4.70
2023-09-04T09:58:50.331Z,5.13
2023-09-04T10:01:18.568Z,4.57
2023-09-04T10:03:45.805Z,4.78
2023-09-04T10:06:22.788Z,5.03
2023-09-04T10:08:52.294Z,5.18
2023-09-04T10:11:19.599Z,4.72
2023-09-04T10:13:54.008Z,4.40
2023-09-04T10:18:52.462Z,4.50
2023-09-04T10:21:21.832Z,4.97
2023-09-04T10:24:00.304Z,5.30
2023-09-04T10:26:34.892Z,4.43
2023-09-04T10:29:04.341Z,4.97
2023-09-04T10:31:34.912Z,5.00
2023-09-04T10:34:02.668Z,4.70
2023-09-04T10:36:30.282Z,4.43
2023-09-04T10:39:07.047Z,4.75
2023-09-04T10:41:34.153Z,5.00
2023-09-04T10:44:01.152Z,5.05
2023-09-04T10:46:28.555Z,5.22
2023-09-04T10:48:56.323Z,5.03
2023-09-04T10:51:28.367Z,5.20
2023-09-04T10:53:55.757Z,5.20
2023-09-04T10:56:24.277Z,5.18
2023-09-04T10:59:02.135Z,5.13
2023-09-04T11:01:32.568Z,4.60
2023-09-04T11:04:01.976Z,4.95
2023-09-04T11:06:28.914Z,4.95
2023-09-04T11:08:55.875Z,5.18
2023-09-04T11:11:27.527Z,4.68
2023-09-04T11:13:59.394Z,4.50
2023-09-04T11:16:26.978Z,4.63
2023-09-04T11:19:08.049Z,4.78
2023-09-04T11:21:36.816Z,4.50
2023-09-04T11:24:04.932Z,5.07
2023-09-04T11:26:33.251Z,4.93
2023-09-04T11:29:01.416Z,4.40
2023-09-04T11:31:29.783Z,4.53
2023-09-04T11:33:56.877Z,4.50
2023-09-04T11:36:24.854Z,4.18
2023-09-04T11:39:06.804Z,4.30
2023-09-04T11:41:35.128Z,3.90
2023-09-04T11:44:04.510Z,4.32
2023-09-04T11:46:31.572Z,4.15
2023-09-04T11:48:58.558Z,3.60
2023-09-04T11:51:25.577Z,3.80
2023-09-04T11:53:54.120Z,3.67
2023-09-04T11:56:21.197Z,3.80
2023-09-04T11:58:50.122Z,4.13
2023-09-04T12:01:17.102Z,4.18
2023-09-04T12:03:44.198Z,4.60
2023-09-04T12:06:11.389Z,3.70
2023-09-04T12:08:38.451Z,3.85
2023-09-04T12:11:07.338Z,3.63
2023-09-04T12:13:36.596Z,4.00
2023-09-04T12:16:09.149Z,4.07
2023-09-04T12:18:36.955Z,4.03
2023-09-04T12:21:07.269Z,3.70
2023-09-04T12:23:41.088Z,4.18
2023-09-04T12:26:10.425Z,3.78
2023-09-04T12:28:37.916Z,3.55
2023-09-04T12:31:08.374Z,3.53
2023-09-04T12:33:39.366Z,3.55
2023-09-04T12:36:07.750Z,3.70
2023-09-04T12:38:41.577Z,3.92
2023-09-04T12:41:08.561Z,3.28
2023-09-04T12:43:35.882Z,3.75
2023-09-04T12:46:03.547Z,3.15
2023-09-04T12:48:31.860Z,3.10
2023-09-04T12:50:58.860Z,3.20
2023-09-04T12:53:26.127Z,3.30
2023-09-04T12:55:53.333Z,3.30
2023-09-04T12:58:20.217Z,3.40
2023-09-04T13:00:47.696Z,3.28
2023-09-04T13:03:14.941Z,3.47
2023-09-04T13:05:43.571Z,3.75
2023-09-04T13:08:10.647Z,3.38
2023-09-04T13:10:37.625Z,3.85
2023-09-04T13:13:04.839Z,3.60
2023-09-04T13:15:31.894Z,3.25
2023-09-04T13:17:58.860Z,3.88
2023-09-04T13:20:25.852Z,3.80
2023-09-04T13:22:54.410Z,3.72
2023-09-04T13:25:21.412Z,3.50
2023-09-04T13:27:48.370Z,3.67
2023-09-04T13:30:15.427Z,3.45
2023-09-04T13:32:42.438Z,3.97
2023-09-04T13:35:09.571Z,3.80
2023-09-04T13:37:42.734Z,4.30
2023-09-04T13:40:12.230Z,4.32
2023-09-04T13:42:39.161Z,4.25
2023-09-04T13:45:06.978Z,3.47
2023-09-04T13:47:33.952Z,4.47
2023-09-04T13:50:00.928Z,4.35
2023-09-04T13:52:27.890Z,4.05
2023-09-04T13:54:54.834Z,4.40
2023-09-04T13:57:23.476Z,4.65
2023-09-04T13:59:50.429Z,4.07
2023-09-04T14:02:17.473Z,4.40
2023-09-04T14:04:44.545Z,4.50
2023-09-04T14:07:11.470Z,4.82
2023-09-04T14:09:38.476Z,4.40
2023-09-04T14:12:06.475Z,4.82
2023-09-04T14:14:34.892Z,4.53
2023-09-04T14:17:01.845Z,5.47
2023-09-04T14:19:28.808Z,5.78
2023-09-04T14:21:55.752Z,5.00
2023-09-04T14:24:22.935Z,5.43
2023-09-04T14:26:49.921Z,5.63
2023-09-04T14:29:16.896Z,5.38
2023-09-04T14:31:45.358Z,5.57
2023-09-04T14:34:12.312Z,4.78
2023-09-04T14:36:41.655Z,4.60
2023-09-04T14:39:20.927Z,4.85
2023-09-04T14:41:48.089Z,4.68
2023-09-04T14:44:15.075Z,5.00
2023-09-04T14:46:42.104Z,4.80
2023-09-04T14:49:10.481Z,5.10
2023-09-04T14:51:37.372Z,4.57
2023-09-04T14:54:04.310Z,4.63
2023-09-04T14:56:31.234Z,4.90
2023-09-04T14:58:58.385Z,4.78
2023-09-04T15:01:25.598Z,4.50
2023-09-04T15:03:52.791Z,4.72
2023-09-04T15:06:21.241Z,4.45
2023-09-04T15:08:48.266Z,4.30
2023-09-04T15:11:15.902Z,4.70
2023-09-04T15:13:44.205Z,4.65
2023-09-04T15:16:11.329Z,5.10
2023-09-04T15:18:38.357Z,4.65
2023-09-04T15:21:06.713Z,4.93
2023-09-04T15:23:35.424Z,5.20
2023-09-04T15:26:02.793Z,5.07
2023-09-04T15:28:30.920Z,4.65
2023-09-04T15:30:58.025Z,4.55
2023-09-04T15:33:25.943Z,4.68
2023-09-04T15:35:54.710Z,4.47
2023-09-04T15:38:27.970Z,5.20
2023-09-04T15:40:56.361Z,4.80
2023-09-04T15:43:23.391Z,6.70
2023-09-04T15:45:51.039Z,5.10
2023-09-04T15:48:18.176Z,8.68
2023-09-04T15:50:45.074Z,5.88
2023-09-04T15:53:11.980Z,7.20
2023-09-04T15:55:38.978Z,8.05
2023-09-04T15:58:07.434Z,7.18
2023-09-04T16:00:34.822Z,8.30
2023-09-04T16:03:02.041Z,5.82
2023-09-04T16:05:29.063Z,4.80
2023-09-04T16:07:56.037Z,5.82
2023-09-04T16:10:22.982Z,5.40
2023-09-04T16:12:49.922Z,4.70
2023-09-04T16:15:19.274Z,4.57
2023-09-04T16:17:47.304Z,3.95
2023-09-04T16:20:14.314Z,4.47
2023-09-04T16:22:41.387Z,4.45
2023-09-04T16:25:08.575Z,5.22
2023-09-04T16:27:35.475Z,4.85
2023-09-04T16:30:02.444Z,4.63
2023-09-04T16:32:30.895Z,4.80
2023-09-04T16:34:57.876Z,4.45
2023-09-04T16:37:24.779Z,4.70
2023-09-04T16:39:51.852Z,4.70
2023-09-04T16:42:18.891Z,5.00
2023-09-04T16:44:45.800Z,4.80
2023-09-04T16:47:13.013Z,5.47
2023-09-04T16:49:41.309Z,4.95
2023-09-04T16:52:08.323Z,5.35
2023-09-04T16:54:35.261Z,4.78
2023-09-04T16:57:02.294Z,5.10
2023-09-04T16:59:29.257Z,5.07
2023-09-04T17:01:56.203Z,4.90
2023-09-04T17:04:23.116Z,5.50
2023-09-04T17:06:51.456Z,5.20
2023-09-04T17:09:18.418Z,4.90
2023-09-04T17:11:45.368Z,4.90
2023-09-04T17:14:12.328Z,4.70
2023-09-04T17:16:39.349Z,4.70
2023-09-04T17:19:06.334Z,5.05
2023-09-04T17:21:33.242Z,5.10
2023-09-04T17:24:01.555Z,5.05
2023-09-04T17:26:28.441Z,4.70
2023-09-04T17:28:56.411Z,4.95
2023-09-04T17:31:23.492Z,5.28
2023-09-04T17:33:50.495Z,5.10
2023-09-04T17:36:17.446Z,4.95
2023-09-04T17:38:44.539Z,4.80
2023-09-04T17:41:14.625Z,5.13
2023-09-04T17:43:42.320Z,5.22
2023-09-04T17:46:09.936Z,5.28
2023-09-04T17:48:36.932Z,5.55
2023-09-04T17:51:04.866Z,5.07
2023-09-04T17:53:32.215Z,4.97
2023-09-04T17:55:59.119Z,4.85
2023-09-04T17:58:29.645Z,5.22
2023-09-04T18:00:56.793Z,5.28
2023-09-04T18:03:23.875Z,5.55
2023-09-04T18:05:50.988Z,5.55
2023-09-04T18:08:18.106Z,5.38
2023-09-04T18:10:45.135Z,5.53
2023-09-04T18:13:12.266Z,5.43
2023-09-04T18:15:49.280Z,5.43
2023-09-04T18:18:18.029Z,5.50
2023-09-04T18:20:45.286Z,5.70
2023-09-04T18:23:12.436Z,5.30
2023-09-04T18:25:39.621Z,5.75
2023-09-04T18:28:09.675Z,5.55
2023-09-04T18:30:36.596Z,5.47
2023-09-04T18:33:05.484Z,5.45
2023-09-04T18:35:32.719Z,5.68
2023-09-04T18:37:59.686Z,5.43
2023-09-04T18:40:26.645Z,5.65
2023-09-04T18:42:53.859Z,5.63
2023-09-04T18:45:20.863Z,5.40
2023-09-04T18:47:47.844Z,4.97
2023-09-04T18:50:16.090Z,5.80
2023-09-04T18:52:43.000Z,5.70
2023-09-04T18:55:10.064Z,5.40
2023-09-04T18:57:36.956Z,5.63
2023-09-04T19:00:05.289Z,5.47
2023-09-04T19:02:32.338Z,5.22
2023-09-04T19:04:59.329Z,5.35
2023-09-04T19:07:27.612Z,5.90
2023-09-04T19:09:55.037Z,5.20
2023-09-04T19:12:21.951Z,5.47
2023-09-04T19:14:48.881Z,5.20
2023-09-04T19:17:15.793Z,5.10
2023-09-04T19:19:42.893Z,5.30
2023-09-04T19:22:09.891Z,4.97
2023-09-04T19:24:38.274Z,5.13
2023-09-04T19:27:05.564Z,5.28
2023-09-04T19:29:32.552Z,4.97
2023-09-04T19:31:59.541Z,5.45
2023-09-04T19:34:26.662Z,5.30
2023-09-04T19:36:53.590Z,5.30
2023-09-04T19:39:20.598Z,5.00
2023-09-04T19:41:48.875Z,4.85
2023-09-04T19:44:15.755Z,5.28
2023-09-04T19:46:42.760Z,4.97
2023-09-04T19:49:09.686Z,5.13
2023-09-04T19:51:36.605Z,4.70
2023-09-04T19:54:03.690Z,5.10
2023-09-04T19:56:30.756Z,5.70
2023-09-04T19:58:59.105Z,5.13
2023-09-04T20:01:26.188Z,4.88
2023-09-04T20:03:53.413Z,5.13
2023-09-04T20:06:20.371Z,5.32
2023-09-04T20:08:47.294Z,4.80
2023-09-04T20:11:14.253Z,4.60
2023-09-04T20:13:41.160Z,5.22
2023-09-04T20:16:09.569Z,5.20
2023-09-04T20:18:36.509Z,4.47
2023-09-04T20:21:03.469Z,4.72
2023-09-04T20:23:30.349Z,4.75
2023-09-04T20:26:00.282Z,5.00
2023-09-04T20:28:27.631Z,4.88
2023-09-04T20:30:55.027Z,5.20
2023-09-04T20:33:24.568Z,5.40
2023-09-04T20:35:52.473Z,5.70
2023-09-04T20:38:19.438Z,6.35
2023-09-04T20:40:46.538Z,5.22
2023-09-04T20:43:13.432Z,5.10
2023-09-04T20:45:40.492Z,5.63
2023-09-04T20:48:08.037Z,5.97
2023-09-04T20:50:36.435Z,5.10
2023-09-04T20:53:03.660Z,4.93
2023-09-04T20:55:30.762Z,5.60
2023-09-04T20:57:57.637Z,6.70
2023-09-04T21:00:24.670Z,6.25
2023-09-04T21:02:51.742Z,5.93
2023-09-04T21:05:18.775Z,5.35
2023-09-04T21:07:47.094Z,5.53
2023-09-04T21:10:15.239Z,5.20
2023-09-04T21:12:42.151Z,5.57
2023-09-04T21:15:09.963Z,5.55
2023-09-04T21:17:37.100Z,5.97
2023-09-04T21:20:04.629Z,5.03
2023-09-04T21:22:31.568Z,5.40
2023-09-04T21:25:00.146Z,5.82
2023-09-04T21:27:27.244Z,5.57
2023-09-04T21:29:54.167Z,5.88
2023-09-04T21:32:21.070Z,5.32
2023-09-04T21:34:48.253Z,5.90
2023-09-04T21:37:15.329Z,5.30
2023-09-04T21:39:42.248Z,5.90
2023-09-04T21:42:10.610Z,6.63
2023-09-04T21:44:37.607Z,5.72
2023-09-04T21:47:04.909Z,5.85
2023-09-04T21:49:31.875Z,5.68
2023-09-04T21:51:59.285Z,5.60
2023-09-04T21:54:26.264Z,5.95
2023-09-04T21:56:53.193Z,5.65
2023-09-04T21:59:21.642Z,5.72
2023-09-04T22:01:48.645Z,5.38
2023-09-04T22:04:15.779Z,5.85
2023-09-04T22:06:42.927Z,5.85
2023-09-04T22:09:09.886Z,5.80
2023-09-04T22:11:36.792Z,6.00
2023-09-04T22:14:03.729Z,6.20
2023-09-04T22:16:32.067Z,6.63
2023-09-04T22:18:58.973Z,5.63
2023-09-04T22:21:25.929Z,5.95
2023-09-04T22:23:53.320Z,5.63
2023-09-04T22:26:20.375Z,5.97
2023-09-04T22:28:47.457Z,6.38
2023-09-04T22:31:14.434Z,5.38
2023-09-04T22:33:43.431Z,6.07
2023-09-04T22:36:10.344Z,6.00
2023-09-04T22:38:37.293Z,6.10
2023-09-04T22:41:04.451Z,6.38
2023-09-04T22:43:31.438Z,6.55
2023-09-04T22:45:58.371Z,5.97
2023-09-04T22:48:25.341Z,6.32
2023-09-04T22:50:53.701Z,6.38
2023-09-04T22:53:20.678Z,6.65
2023-09-04T22:55:47.585Z,6.22
2023-09-04T22:58:14.479Z,6.55
2023-09-04T23:00:41.570Z,7.20
2023-09-04T23:03:12.524Z,6.93
2023-09-04T23:05:39.479Z,5.85
2023-09-04T23:08:08.116Z,6.55
2023-09-04T23:10:35.252Z,6.15
2023-09-04T23:13:02.162Z,6.55
2023-09-04T23:15:30.444Z,6.68
2023-09-04T23:17:57.511Z,6.57
2023-09-04T23:20:24.466Z,6.82
2023-09-04T23:22:51.358Z,6.50
2023-09-04T23:25:20.024Z,6.63
2023-09-04T23:27:47.178Z,6.25
2023-09-04T23:30:14.834Z,6.45
2023-09-04T23:32:41.839Z,6.75
2023-09-04T23:35:09.497Z,6.80
2023-09-04T23:37:36.500Z,6.50
2023-09-04T23:40:03.595Z,6.78
2023-09-04T23:42:35.956Z,6.82
2023-09-04T23:45:02.930Z,6.18
2023-09-04T23:47:29.935Z,6.15
2023-09-04T23:49:57.022Z,6.13
2023-09-04T23:52:23.988Z,6.15
2023-09-04T23:54:50.881Z,5.97
2023-09-04T23:57:18.009Z,5.65
2023-09-04T23:59:46.314Z,6.40
